Time;durP1;ratioP1;P1;durP2;ratioP2;P2;SDS_P1;SDS_P2;PMS_P1;PMS_P2;Temp;Humidity;BMP_temperature;BMP_pressure;BME280_temperature;BME280_humidity;BME280_pressure;Samples;Min_cycle;Max_cycle;Signal;HPM_P1;HPM_P2
2023/02/27 00:01:33;;;;;;;25.48;8.63;;;;;;;12.26;51.69;93737.00;4188883;28;20040;-57
2023/02/27 00:03:35;;;;;;;17.83;7.82;;;;;;;12.16;52.13;93738.34;4183611;28;20164;-56
2023/02/27 00:05:37;;;;;;;21.27;7.57;;;;;;;12.12;52.31;93740.53;4188830;28;20060;-56
2023/02/27 00:07:38;;;;;;;22.90;8.15;;;;;;;12.11;52.10;93740.69;4207639;28;20048;-58
2023/02/27 00:09:40;;;;;;;22.52;7.75;;;;;;;12.16;52.17;93749.63;4206139;28;20395;-58
2023/02/27 00:11:42;;;;;;;27.95;9.18;;;;;;;12.27;51.99;93740.41;4204024;28;20040;-59
2023/02/27 00:13:44;;;;;;;17.80;7.90;;;;;;;12.39;51.79;93745.94;4206612;28;20484;-57
2023/02/27 00:15:47;;;;;;;23.45;8.43;;;;;;;12.52;51.43;93750.44;4195458;28;20155;-58
2023/02/27 00:17:48;;;;;;;21.57;7.50;;;;;;;12.45;51.49;93742.53;4204859;28;20075;-58
2023/02/27 00:19:50;;;;;;;28.67;8.30;;;;;;;12.42;51.78;93738.47;4200094;28;20568;-56
2023/02/27 00:21:52;;;;;;;20.38;7.95;;;;;;;12.48;51.50;93757.94;4187133;28;20557;-56
2023/02/27 00:23:54;;;;;;;22.15;7.55;;;;;;;12.53;51.48;93739.75;4201409;28;20076;-58
2023/02/27 00:25:55;;;;;;;29.27;9.20;;;;;;;12.58;51.58;93753.09;4202252;28;20044;-60
2023/02/27 00:27:57;;;;;;;25.88;10.18;;;;;;;12.60;51.36;93758.97;4212983;28;20101;-59
2023/02/27 00:29:59;;;;;;;28.98;9.25;;;;;;;12.58;51.48;93739.97;4212743;28;20051;-60
2023/02/27 00:32:01;;;;;;;28.63;9.35;;;;;;;12.46;52.05;93728.41;4212580;28;20485;-58
2023/02/27 00:34:03;;;;;;;26.80;9.48;;;;;;;12.38;51.88;93734.63;4211186;28;20048;-57
2023/02/27 00:36:05;;;;;;;27.08;8.10;;;;;;;12.35;52.09;93737.66;4212297;28;20048;-52
2023/02/27 00:38:07;;;;;;;29.65;9.30;;;;;;;12.36;52.22;93741.88;4211001;28;20052;-53
2023/02/27 00:40:10;;;;;;;19.52;8.15;;;;;;;12.36;52.05;93752.38;4212526;28;20138;-55
2023/02/27 00:42:11;;;;;;;21.35;8.15;;;;;;;12.35;52.23;93757.84;4211975;28;20101;-60
2023/02/27 00:44:13;;;;;;;31.02;8.35;;;;;;;12.19;52.79;93744.00;4212648;28;20556;-58
2023/02/27 00:46:15;;;;;;;26.85;8.98;;;;;;;12.00;52.94;93742.88;4211442;28;20051;-59
2023/02/27 00:48:16;;;;;;;21.48;7.72;;;;;;;11.96;53.28;93738.19;4211036;28;20048;-55
2023/02/27 00:50:18;;;;;;;26.17;8.88;;;;;;;11.85;53.67;93742.94;4211526;28;20052;-55
2023/02/27 00:52:20;;;;;;;20.15;7.57;;;;;;;11.76;53.78;93749.31;4200095;28;20087;-55
2023/02/27 00:54:21;;;;;;;22.40;8.63;;;;;;;11.74;53.86;93742.63;4209234;28;20464;-57
2023/02/27 00:56:23;;;;;;;20.65;8.10;;;;;;;11.72;53.93;93749.88;4201125;28;20044;-56
2023/02/27 00:58:25;;;;;;;22.20;8.13;;;;;;;11.52;54.63;93752.31;4212109;28;20047;-58
2023/02/27 01:00:27;;;;;;;26.45;7.47;;;;;;;11.68;54.23;93749.47;4212133;28;20066;-56
2023/02/27 01:02:29;;;;;;;25.48;7.50;;;;;;;11.81;53.86;93749.56;4210735;28;20044;-57
2023/02/27 01:04:30;;;;;;;30.85;7.05;;;;;;;11.97;53.59;93738.00;4210975;28;20048;-56
2023/02/27 01:06:32;;;;;;;25.40;7.72;;;;;;;12.12;53.24;93737.09;4204634;28;20434;-59
2023/02/27 01:08:34;;;;;;;25.27;7.57;;;;;;;12.22;53.03;93735.75;4192655;28;20056;-58
2023/02/27 01:10:35;;;;;;;24.10;6.40;;;;;;;12.22;52.59;93735.75;4179523;28;20114;-57
2023/02/27 01:12:37;;;;;;;24.52;7.47;;;;;;;12.32;52.29;93747.72;4182378;28;20052;-58
2023/02/27 01:14:39;;;;;;;27.80;7.22;;;;;;;12.38;51.75;93742.50;4189189;28;20049;-58
2023/02/27 01:16:41;;;;;;;28.98;6.85;;;;;;;12.29;52.51;93741.03;4179534;28;20462;-60
2023/02/27 01:18:43;;;;;;;19.77;7.90;;;;;;;12.19;52.85;93738.75;4178460;28;20545;-57
2023/02/27 01:20:44;;;;;;;27.77;8.13;;;;;;;12.08;53.13;93736.66;4190944;28;20110;-58
2023/02/27 01:22:46;;;;;;;21.27;8.27;;;;;;;12.11;53.21;93741.53;4211537;28;20055;-59
2023/02/27 01:24:48;;;;;;;25.85;8.88;;;;;;;11.97;53.36;93738.00;4201513;28;20441;-58
2023/02/27 01:26:51;;;;;;;21.42;7.68;;;;;;;12.01;53.27;93738.44;4179834;28;20041;-60
2023/02/27 01:28:53;;;;;;;20.90;7.20;;;;;;;11.81;53.54;93744.31;4190976;28;20060;-59
2023/02/27 01:30:55;;;;;;;23.60;8.27;;;;;;;11.95;53.66;93760.19;4182691;28;20053;-60
2023/02/27 01:32:56;;;;;;;34.38;9.18;;;;;;;12.06;53.22;93751.78;4207480;28;20050;-59
2023/02/27 01:34:58;;;;;;;26.65;8.60;;;;;;;11.96;53.62;93751.28;4197649;28;20075;-58
2023/02/27 01:37:00;;;;;;;25.52;8.02;;;;;;;12.05;53.22;93760.69;4207966;28;20040;-58
2023/02/27 01:39:01;;;;;;;23.10;8.57;;;;;;;11.87;53.55;93768.97;4212364;28;20094;-58
2023/02/27 01:41:06;;;;;;;22.38;7.68;;;;;;;11.72;54.44;93768.25;4205413;28;20049;-59
2023/02/27 01:43:20;;;;;;;33.05;8.13;;;;;;;11.63;54.92;93788.53;4184852;28;20052;-56
2023/02/27 01:45:30;;;;;;;27.63;7.60;;;;;;;11.53;55.37;93806.41;4191011;28;20049;-57
2023/02/27 01:47:32;;;;;;;19.92;7.57;;;;;;;11.48;55.74;93817.44;4180952;28;20837;-57
2023/02/27 01:49:33;;;;;;;27.60;8.35;;;;;;;11.51;55.81;93822.34;4204535;28;20050;-57
2023/02/27 01:51:38;;;;;;;28.30;7.75;;;;;;;11.54;55.67;93808.03;4214517;28;20075;-58
2023/02/27 01:53:41;;;;;;;20.55;7.90;;;;;;;11.50;55.92;93812.03;4207542;28;20135;-57
2023/02/27 01:55:44;;;;;;;25.45;8.80;;;;;;;11.65;55.51;93812.78;4213483;28;20513;-57
2023/02/27 01:57:46;;;;;;;22.88;7.57;;;;;;;11.83;54.97;93817.56;4213126;28;20087;-59
2023/02/27 01:59:48;;;;;;;22.25;7.53;;;;;;;11.97;54.66;93800.19;4206109;28;20055;-59
2023/02/27 02:01:50;;;;;;;22.63;8.40;;;;;;;11.86;55.05;93807.53;4197514;28;20649;-51
2023/02/27 02:04:07;;;;;;;21.98;8.27;;;;;;;11.92;55.00;93834.88;4196545;28;20052;-51
2023/02/27 02:06:09;;;;;;;22.45;7.43;;;;;;;11.97;54.81;93829.84;4195512;28;20435;-52
2023/02/27 02:08:13;;;;;;;22.65;8.18;;;;;;;11.57;56.16;93821.59;4193611;28;20530;-53
2023/02/27 02:10:16;;;;;;;34.00;10.00;;;;;;;11.55;56.93;93843.75;4182031;28;20107;-52
2023/02/27 02:12:21;;;;;;;21.63;7.10;;;;;;;11.72;56.74;93860.06;4195593;28;20726;-53
2023/02/27 02:14:23;;;;;;;19.42;8.50;;;;;;;11.86;56.92;93881.00;4187858;28;20045;-53
2023/02/27 02:16:53;;;;;;;24.42;8.25;;;;;;;11.96;57.72;93872.03;4198730;28;20052;-52
2023/02/27 02:19:32;;;;;;;25.42;7.88;;;;;;;11.94;59.47;93931.78;4180967;28;20057;-52
2023/02/27 02:22:07;;;;;;;24.50;8.20;;;;;;;11.73;61.86;94021.75;4191864;28;20462;-54
2023/02/27 02:24:22;;;;;;;11.18;2.80;;;;;;;10.96;65.46;94022.88;4188514;28;20048;-53
2023/02/27 02:26:29;;;;;;;;;;;;;;;10.79;67.44;94012.53;4189747;28;20098;-52
2023/02/27 02:28:56;;;;;;;6.93;2.80;;;;;;;10.72;67.30;94026.53;4193834;28;20335;-55
2023/02/27 02:30:58;;;;;;;;;;;;;;;10.63;67.24;94021.34;4182475;28;20088;-53
2023/02/27 02:33:47;;;;;;;10.45;1.88;;;;;;;10.58;67.96;94013.22;4193858;28;20015;-50
2023/02/27 02:36:16;;;;;;;4.07;1.40;;;;;;;10.58;67.10;93984.41;4183959;28;20048;-51
2023/02/27 02:38:27;;;;;;;5.05;1.65;;;;;;;10.57;68.38;93971.50;4194298;28;20082;-52
2023/02/27 02:40:54;;;;;;;7.90;1.58;;;;;;;10.56;68.48;93981.16;4197234;28;20132;-54
2023/02/27 02:43:36;;;;;;;6.65;1.70;;;;;;;10.63;69.42;93982.06;4175752;28;20057;-51
2023/02/27 02:45:52;;;;;;;5.07;1.42;;;;;;;10.69;69.18;93990.19;4176514;28;20049;-53
2023/02/27 02:48:45;;;;;;;4.88;1.70;;;;;;;10.71;68.79;93996.91;4191476;28;20135;-54
2023/02/27 02:51:00;;;;;;;5.28;1.15;;;;;;;10.61;68.46;94025.97;4172710;28;20635;-56
2023/02/27 02:53:17;;;;;;;5.97;1.30;;;;;;;10.22;69.46;94029.47;4197105;28;20088;-58
2023/02/27 02:55:33;;;;;;;4.72;1.77;;;;;;;10.10;69.99;94033.47;4188424;28;20433;-57
2023/02/27 02:58:17;;;;;;;3.67;1.33;;;;;;;9.87;71.51;94028.19;4186454;28;20041;-54
2023/02/27 03:00:22;;;;;;;3.95;2.00;;;;;;;9.38;72.50;94029.19;4175844;28;20207;-58
2023/02/27 03:02:27;;;;;;;6.22;2.03;;;;;;;9.30;72.64;94052.75;4159979;28;20763;-56
2023/02/27 03:04:52;;;;;;;6.53;2.38;;;;;;;9.37;73.16;94060.72;4089538;28;20359;-57
2023/02/27 03:07:33;;;;;;;7.68;2.78;;;;;;;9.53;72.77;94052.00;4089209;28;20358;-56
2023/02/27 03:09:44;;;;;;;9.35;2.72;;;;;;;9.37;72.32;94061.53;4061454;28;20755;-57
2023/02/27 03:11:47;;;;;;;8.32;2.95;;;;;;;9.16;73.19;94064.69;4076901;28;20383;-57
2023/02/27 03:13:53;;;;;;;7.32;3.70;;;;;;;9.08;73.95;94075.16;4064451;28;20289;-60
2023/02/27 03:16:24;;;;;;;10.60;3.80;;;;;;;8.91;74.35;94068.31;4066046;28;20829;-58
2023/02/27 03:18:31;;;;;;;9.70;5.32;;;;;;;8.39;72.83;94101.53;4086901;28;20349;-55
2023/02/27 03:20:36;;;;;;;9.23;5.72;;;;;;;7.53;75.81;94091.31;4078574;28;20217;-56
2023/02/27 03:22:41;;;;;;;9.07;6.07;;;;;;;7.41;75.96;94093.34;4068801;28;20391;-58
2023/02/27 03:24:49;;;;;;;9.68;7.03;;;;;;;6.79;74.97;94103.00;4091807;28;20368;-50
2023/02/27 03:26:53;;;;;;;12.73;6.68;;;;;;;6.59;75.62;94103.19;4083326;28;20442;-53
2023/02/27 03:29:03;;;;;;;11.57;6.47;;;;;;;6.26;75.96;94107.25;4065874;28;20311;-54
2023/02/27 03:31:13;;;;;;;9.35;6.38;;;;;;;6.57;76.34;94128.53;4071375;28;20262;-52
2023/02/27 03:33:19;;;;;;;18.60;12.68;;;;;;;6.42;75.25;94127.41;4088792;28;20728;-57
2023/02/27 03:35:24;;;;;;;10.27;6.63;;;;;;;6.64;75.49;94136.56;4069724;28;20323;-54
2023/02/27 03:37:49;;;;;;;10.05;6.25;;;;;;;6.98;75.59;94149.72;4084619;28;20435;-53
2023/02/27 03:40:00;;;;;;;10.40;6.50;;;;;;;7.40;75.69;94156.88;4079225;28;20308;-54
2023/02/27 03:42:30;;;;;;;8.77;6.32;;;;;;;7.75;73.32;94155.13;4071461;28;20317;-54
2023/02/27 03:44:48;;;;;;;8.18;6.00;;;;;;;7.98;72.04;94158.81;4075661;28;20256;-52
2023/02/27 03:46:52;;;;;;;9.43;5.93;;;;;;;7.64;70.40;94163.22;4069744;28;20342;-52
2023/02/27 03:48:53;;;;;;;9.75;6.03;;;;;;;7.75;71.58;94171.56;4085446;28;20334;-52
2023/02/27 03:50:55;;;;;;;9.13;5.60;;;;;;;7.95;71.47;94173.94;4073879;28;20306;-54
2023/02/27 03:52:57;;;;;;;7.93;5.68;;;;;;;8.17;72.52;94180.41;4081004;28;20298;-50
2023/02/27 03:55:03;;;;;;;9.57;6.07;;;;;;;8.37;71.96;94180.97;4071310;28;20230;-54
2023/02/27 03:57:06;;;;;;;9.38;5.75;;;;;;;8.50;70.77;94181.38;4075132;28;20366;-53
2023/02/27 03:59:08;;;;;;;8.73;5.63;;;;;;;8.68;71.16;94193.50;4077444;28;20297;-50
2023/02/27 04:01:10;;;;;;;11.07;6.22;;;;;;;8.82;70.64;94185.03;4074484;28;20719;-56
2023/02/27 04:03:12;;;;;;;8.07;5.13;;;;;;;8.94;70.39;94193.38;4076759;28;20385;-57
2023/02/27 04:05:13;;;;;;;8.93;5.57;;;;;;;9.02;69.70;94199.41;4076509;28;20310;-54
2023/02/27 04:07:47;;;;;;;9.00;5.20;;;;;;;9.08;68.61;94191.91;4075835;28;20145;-51
2023/02/27 04:10:13;;;;;;;8.82;5.38;;;;;;;9.07;67.68;94196.31;4075833;28;20246;-55
2023/02/27 04:12:20;;;;;;;8.68;5.00;;;;;;;9.08;67.98;94210.19;4067222;28;20329;-53
2023/02/27 04:14:29;;;;;;;8.73;5.32;;;;;;;8.77;66.20;94213.41;4067294;28;20620;-57
2023/02/27 04:17:09;;;;;;;7.78;5.50;;;;;;;8.32;67.72;94215.34;4079858;28;20359;-54
2023/02/27 04:19:23;;;;;;;8.48;5.68;;;;;;;8.10;68.56;94226.34;4064812;28;20338;-54
2023/02/27 04:21:55;;;;;;;11.60;6.33;;;;;;;7.52;69.68;94233.00;4083039;28;20436;-58
2023/02/27 04:24:12;;;;;;;9.32;6.18;;;;;;;7.24;71.36;94243.53;4075118;28;20614;-53
2023/02/27 04:26:57;;;;;;;9.90;6.30;;;;;;;6.91;72.76;94242.44;4083987;28;20339;-54
2023/02/27 04:29:14;;;;;;;13.25;7.20;;;;;;;6.51;74.89;94252.25;4046045;28;20763;-55
2023/02/27 04:31:23;;;;;;;10.88;7.15;;;;;;;6.28;76.04;94254.44;4077797;28;20302;-57
2023/02/27 04:33:47;;;;;;;9.50;6.80;;;;;;;6.24;76.34;94266.06;4069937;28;20265;-57
2023/02/27 04:35:58;;;;;;;11.02;6.82;;;;;;;6.42;75.79;94268.72;4057999;28;20195;-54
2023/02/27 04:38:03;;;;;;;9.13;5.93;;;;;;;6.73;74.99;94273.63;4067106;28;20877;-54
2023/02/27 04:40:08;;;;;;;9.45;6.47;;;;;;;7.06;75.27;94279.19;4076365;28;20381;-54
2023/02/27 04:42:34;;;;;;;9.82;6.50;;;;;;;7.07;72.14;94291.25;4070926;28;20376;-55
2023/02/27 04:44:37;;;;;;;7.82;5.05;;;;;;;6.65;72.89;94299.59;4056174;28;20939;-55
2023/02/27 04:46:41;;;;;;;6.88;4.97;;;;;;;6.74;72.77;94301.31;4060894;28;20811;-55
2023/02/27 04:48:56;;;;;;;8.00;5.32;;;;;;;6.69;72.78;94301.75;4068699;28;20425;-52
2023/02/27 04:51:16;;;;;;;9.43;5.55;;;;;;;6.80;72.68;94307.69;4070344;28;20422;-58
2023/02/27 04:53:23;;;;;;;8.40;5.28;;;;;;;7.00;73.20;94311.84;4057530;28;20470;-55
2023/02/27 04:55:34;;;;;;;7.47;5.20;;;;;;;6.98;72.58;94311.97;4059599;28;20406;-53
2023/02/27 04:57:40;;;;;;;9.93;5.50;;;;;;;7.11;72.74;94314.22;4058423;28;20279;-57
2023/02/27 04:59:45;;;;;;;7.78;5.30;;;;;;;7.32;72.78;94306.13;4059159;28;20793;-54
2023/02/27 05:02:02;;;;;;;6.65;4.90;;;;;;;7.49;71.81;94314.13;4067227;28;20397;-55
2023/02/27 05:04:06;;;;;;;7.55;4.80;;;;;;;7.64;71.38;94317.81;4059555;28;20425;-57
2023/02/27 05:06:09;;;;;;;7.97;5.10;;;;;;;7.79;71.04;94318.94;4057815;28;20382;-59
2023/02/27 05:08:17;;;;;;;8.07;5.57;;;;;;;7.94;70.22;94331.44;4069122;28;20386;-57
2023/02/27 05:10:45;;;;;;;7.30;4.72;;;;;;;8.04;69.73;94331.31;4075890;28;20343;-55
2023/02/27 05:12:50;;;;;;;7.07;4.05;;;;;;;8.07;68.96;94337.06;4064907;28;20291;-57
2023/02/27 05:15:13;;;;;;;7.63;4.63;;;;;;;8.15;69.12;94339.72;4056742;28;20278;-59
2023/02/27 05:17:19;;;;;;;6.63;3.92;;;;;;;8.14;68.62;94338.06;4060970;28;20384;-54
2023/02/27 05:19:21;;;;;;;8.35;4.55;;;;;;;8.26;67.94;94346.50;4074885;28;20334;-56
2023/02/27 05:21:35;;;;;;;6.35;3.88;;;;;;;8.30;68.52;94345.22;4062482;28;20328;-53
2023/02/27 05:24:05;;;;;;;6.88;4.25;;;;;;;8.27;67.24;94344.69;4062850;28;20313;-57
2023/02/27 05:26:15;;;;;;;8.75;3.85;;;;;;;7.68;69.05;94344.41;4072366;28;20263;-55
2023/02/27 05:28:22;;;;;;;7.00;4.28;;;;;;;7.54;68.88;94350.97;4072147;28;20430;-58
2023/02/27 05:30:26;;;;;;;6.38;4.47;;;;;;;7.61;69.66;94354.59;4063903;28;20371;-54
2023/02/27 05:32:32;;;;;;;6.07;4.15;;;;;;;7.73;69.47;94356.03;4067432;28;20270;-54
2023/02/27 05:34:38;;;;;;;6.18;4.05;;;;;;;7.87;69.35;94366.88;4066267;28;20367;-58
2023/02/27 05:36:45;;;;;;;7.45;4.43;;;;;;;8.07;69.15;94370.97;4066655;28;20505;-61
2023/02/27 05:38:50;;;;;;;6.20;4.13;;;;;;;8.26;69.25;94374.34;4076109;28;20272;-58
2023/02/27 05:41:01;;;;;;;6.57;3.90;;;;;;;8.36;68.31;94377.69;4089483;28;20305;-59
2023/02/27 05:43:09;;;;;;;6.32;3.63;;;;;;;8.42;66.94;94382.34;4088536;28;20381;-62
2023/02/27 05:45:24;;;;;;;5.38;3.50;;;;;;;8.49;66.68;94380.72;4085903;28;20426;-59
2023/02/27 05:47:28;;;;;;;7.45;3.88;;;;;;;8.58;66.39;94384.22;4085605;28;20906;-57
2023/02/27 05:49:33;;;;;;;4.78;3.38;;;;;;;8.63;67.10;94384.59;4066074;28;20276;-57
2023/02/27 05:51:36;;;;;;;4.63;3.38;;;;;;;8.69;66.51;94383.13;4087145;28;20328;-61
2023/02/27 05:53:43;;;;;;;6.80;3.03;;;;;;;8.78;65.61;94383.03;4088477;28;20192;-60
2023/02/27 05:55:57;;;;;;;6.22;3.85;;;;;;;8.58;65.16;94382.44;4077058;28;20325;-58
2023/02/27 05:58:14;;;;;;;5.88;3.63;;;;;;;8.54;65.74;94386.34;4087593;28;20368;-62
2023/02/27 06:00:18;;;;;;;4.93;3.00;;;;;;;8.40;65.00;94390.31;4064025;28;20868;-57
2023/02/27 06:02:20;;;;;;;4.93;2.90;;;;;;;8.37;65.61;94389.78;4060585;28;20333;-58
2023/02/27 06:04:21;;;;;;;4.72;3.30;;;;;;;8.35;65.35;94396.94;4063084;28;20806;-57
2023/02/27 06:06:23;;;;;;;5.03;3.30;;;;;;;8.28;65.17;94395.91;4056799;28;20749;-60
2023/02/27 06:08:25;;;;;;;4.05;2.97;;;;;;;8.27;65.21;94404.72;4069355;28;20263;-59
2023/02/27 06:10:27;;;;;;;5.90;3.70;;;;;;;8.25;64.95;94410.06;4074585;28;20194;-60
2023/02/27 06:12:29;;;;;;;4.80;3.20;;;;;;;8.12;65.98;94417.47;4073591;28;20289;-62
2023/02/27 06:14:30;;;;;;;4.90;3.28;;;;;;;7.69;66.35;94411.22;4065680;28;20302;-60
2023/02/27 06:16:36;;;;;;;4.18;2.90;;;;;;;7.59;67.36;94426.94;4072367;28;20434;-61
2023/02/27 06:18:38;;;;;;;4.50;3.03;;;;;;;7.06;67.78;94430.25;4062345;28;20380;-61
2023/02/27 06:20:40;;;;;;;5.20;3.78;;;;;;;6.79;68.80;94423.22;4066729;28;20441;-57
2023/02/27 06:22:42;;;;;;;4.43;3.20;;;;;;;6.87;69.61;94421.56;4069632;28;20183;-60
2023/02/27 06:24:44;;;;;;;6.60;3.67;;;;;;;6.97;69.13;94419.75;4061265;28;20259;-62
2023/02/27 06:26:46;;;;;;;5.07;3.28;;;;;;;7.24;68.42;94422.50;4058199;28;20123;-58
2023/02/27 06:28:47;;;;;;;4.82;3.55;;;;;;;7.42;67.23;94425.13;4058930;28;20236;-58
2023/02/27 06:30:53;;;;;;;5.18;3.65;;;;;;;7.70;67.15;94425.91;4059171;28;20327;-56
2023/02/27 06:32:55;;;;;;;7.28;3.58;;;;;;;7.95;66.37;94426.94;4069996;28;20344;-56
2023/02/27 06:34:57;;;;;;;7.53;4.00;;;;;;;8.12;65.87;94427.91;4062750;28;20375;-58
2023/02/27 06:36:58;;;;;;;4.95;3.70;;;;;;;8.24;65.42;94431.94;4066469;28;20217;-61
2023/02/27 06:39:03;;;;;;;5.72;4.18;;;;;;;8.39;64.49;94440.84;4085633;28;20468;-60
2023/02/27 06:41:05;;;;;;;4.63;3.70;;;;;;;8.41;63.78;94435.53;4083840;28;20403;-59
2023/02/27 06:43:07;;;;;;;5.65;3.80;;;;;;;8.45;63.08;94439.44;4092178;28;20806;-59
2023/02/27 06:45:10;;;;;;;7.03;4.30;;;;;;;8.44;62.58;94444.84;4089163;28;20391;-58
2023/02/27 06:47:12;;;;;;;5.97;3.70;;;;;;;8.17;62.78;94457.81;4090153;28;20303;-59
2023/02/27 06:49:14;;;;;;;4.18;3.40;;;;;;;7.07;66.17;94468.34;4093035;28;20613;-57
2023/02/27 06:51:15;;;;;;;5.05;3.65;;;;;;;6.89;67.71;94463.91;4090327;28;20284;-61
2023/02/27 06:53:17;;;;;;;4.68;3.50;;;;;;;6.60;68.29;94466.56;4090906;28;20369;-60
2023/02/27 06:55:21;;;;;;;6.22;3.33;;;;;;;6.55;68.81;94471.38;4093113;28;20306;-60
2023/02/27 06:57:23;;;;;;;;;;;;;;;6.80;68.83;94472.56;4093004;28;20397;-59
2023/02/27 06:59:24;;;;;;;5.15;3.60;;;;;;;6.66;68.65;94467.81;4091720;28;20166;-57
2023/02/27 07:01:26;;;;;;;5.82;3.70;;;;;;;6.43;69.09;94468.13;4090754;28;20870;-58
2023/02/27 07:03:28;;;;;;;5.70;3.50;;;;;;;6.02;70.15;94464.03;4092060;28;20341;-59
2023/02/27 07:05:30;;;;;;;6.05;4.25;;;;;;;6.27;71.11;94465.25;4090724;28;20438;-58
2023/02/27 07:07:32;;;;;;;6.97;4.70;;;;;;;6.69;70.16;94462.31;4091267;28;20341;-62
2023/02/27 07:09:39;;;;;;;6.70;4.78;;;;;;;7.17;68.48;94462.13;4092183;28;20291;-62
2023/02/27 07:11:40;;;;;;;5.93;3.90;;;;;;;7.49;66.55;94457.47;4078542;28;20758;-59
2023/02/27 07:13:42;;;;;;;8.07;4.53;;;;;;;7.76;65.68;94462.63;4067605;28;20326;-59
2023/02/27 07:15:44;;;;;;;6.13;4.00;;;;;;;7.97;64.44;94458.94;4070867;28;20369;-61
2023/02/27 07:17:46;;;;;;;6.05;4.20;;;;;;;8.10;63.35;94467.19;4060963;28;20337;-61
2023/02/27 07:19:47;;;;;;;10.07;5.10;;;;;;;8.23;63.75;94466.00;4062435;28;20491;-61
2023/02/27 07:21:49;;;;;;;8.13;4.63;;;;;;;8.35;62.56;94472.63;4066206;28;20323;-63
2023/02/27 07:23:51;;;;;;;6.50;4.53;;;;;;;8.32;62.30;94472.91;4079201;28;20256;-61
2023/02/27 07:25:53;;;;;;;9.60;5.25;;;;;;;8.40;62.48;94468.63;4079411;28;20286;-61
2023/02/27 07:27:54;;;;;;;6.63;4.55;;;;;;;7.57;64.74;94478.38;4065568;28;20255;-63
2023/02/27 07:29:56;;;;;;;8.60;4.75;;;;;;;7.35;65.56;94482.22;4065043;28;20365;-60
2023/02/27 07:32:00;;;;;;;6.68;4.40;;;;;;;7.05;67.02;94486.72;4077073;28;20327;-60
2023/02/27 07:34:02;;;;;;;7.03;4.65;;;;;;;7.07;67.10;94494.41;4065529;28;20318;-62
2023/02/27 07:36:04;;;;;;;6.68;4.32;;;;;;;6.86;67.99;94492.84;4066534;28;20705;-61
2023/02/27 07:38:05;;;;;;;8.93;4.30;;;;;;;6.68;68.38;94484.09;4059608;28;20316;-61
2023/02/27 07:40:08;;;;;;;6.80;4.93;;;;;;;6.39;69.16;94484.97;4059859;28;20345;-61
2023/02/27 07:42:10;;;;;;;7.53;4.93;;;;;;;6.79;68.95;94491.75;4067547;28;20270;-61
2023/02/27 07:44:12;;;;;;;6.25;4.60;;;;;;;6.75;69.23;94486.00;4074810;28;20839;-59
2023/02/27 07:46:14;;;;;;;5.72;4.38;;;;;;;6.59;69.08;94497.97;4080221;28;20373;-58
2023/02/27 07:48:15;;;;;;;8.50;4.85;;;;;;;6.56;69.84;94493.88;4075599;28;20372;-59
2023/02/27 07:50:17;;;;;;;6.28;4.88;;;;;;;6.72;70.10;94486.28;4060670;28;20276;-60
2023/02/27 07:52:19;;;;;;;6.93;5.10;;;;;;;6.83;69.57;94490.50;4062047;28;20349;-60
2023/02/27 07:54:21;;;;;;;10.20;5.03;;;;;;;7.04;69.44;94481.69;4060795;28;20338;-60
2023/02/27 07:56:22;;;;;;;8.00;4.53;;;;;;;6.90;69.25;94477.72;4064728;28;20795;-62
2023/02/27 07:58:24;;;;;;;8.25;3.72;;;;;;;6.83;69.20;94490.50;4073416;28;20365;-59
2023/02/27 08:00:26;;;;;;;6.03;4.00;;;;;;;6.65;69.61;94485.22;4061020;28;20263;-62
2023/02/27 08:02:28;;;;;;;6.53;4.07;;;;;;;6.52;70.40;94498.53;4061248;28;20392;-60
2023/02/27 08:04:29;;;;;;;6.70;4.13;;;;;;;6.73;70.29;94492.28;4062415;28;20224;-58
2023/02/27 08:06:31;;;;;;;7.72;4.90;;;;;;;7.05;70.02;94488.50;4078659;28;20337;-59
2023/02/27 08:08:34;;;;;;;11.23;4.97;;;;;;;7.30;68.30;94487.88;4081243;28;20371;-60
2023/02/27 08:10:35;;;;;;;6.90;4.40;;;;;;;7.28;68.46;94494.19;4086592;28;20293;-59
2023/02/27 08:12:38;;;;;;;10.35;4.50;;;;;;;7.23;68.31;94494.63;4072658;28;20381;-63
2023/02/27 08:14:39;;;;;;;7.32;4.03;;;;;;;7.28;68.07;94497.59;4067145;28;20269;-60
2023/02/27 08:16:41;;;;;;;5.95;3.95;;;;;;;7.32;68.24;94496.38;4061345;28;20370;-61
2023/02/27 08:18:43;;;;;;;7.07;4.10;;;;;;;7.41;68.23;94501.69;4070992;28;20377;-60
2023/02/27 08:20:44;;;;;;;7.97;4.50;;;;;;;7.76;67.42;94498.31;4058677;28;20287;-60
2023/02/27 08:22:46;;;;;;;9.15;4.32;;;;;;;7.97;66.87;94492.84;4071645;28;20883;-62
2023/02/27 08:24:47;;;;;;;21.48;8.43;;;;;;;8.14;66.11;94504.25;4061030;28;20363;-63
2023/02/27 08:26:49;;;;;;;8.75;4.55;;;;;;;8.15;66.25;94501.50;4060856;28;20807;-63
2023/02/27 08:28:51;;;;;;;11.45;4.25;;;;;;;7.55;66.77;94512.44;4061304;28;20272;-61
2023/02/27 08:30:53;;;;;;;9.32;4.72;;;;;;;7.75;68.18;94500.13;4060156;28;20372;-59
2023/02/27 08:32:55;;;;;;;5.97;3.78;;;;;;;8.11;66.95;94510.59;4075497;28;20162;-61
2023/02/27 08:34:57;;;;;;;8.27;5.50;;;;;;;8.59;66.11;94501.56;4069049;28;20298;-62
2023/02/27 08:36:58;;;;;;;6.72;4.30;;;;;;;9.01;64.07;94505.25;4083267;28;20330;-61
2023/02/27 08:39:00;;;;;;;7.57;4.15;;;;;;;8.80;64.12;94501.22;4077926;28;20273;-63
2023/02/27 08:41:02;;;;;;;4.35;3.30;;;;;;;9.09;63.04;94501.91;4092440;28;20250;-62
2023/02/27 08:43:04;;;;;;;6.18;2.92;;;;;;;9.34;62.57;94503.66;4094226;28;20356;-60
2023/02/27 08:45:08;;;;;;;4.80;3.25;;;;;;;9.57;61.29;94498.72;4090013;28;20293;-58
2023/02/27 08:47:09;;;;;;;6.60;3.17;;;;;;;9.66;60.54;94501.31;4087558;28;20314;-61
2023/02/27 08:49:11;;;;;;;5.95;3.35;;;;;;;9.83;60.36;94489.97;4083157;28;20425;-60
2023/02/27 08:51:13;;;;;;;9.05;3.67;;;;;;;9.98;60.66;94492.75;4087247;28;20334;-60
2023/02/27 08:53:15;;;;;;;7.00;3.55;;;;;;;9.99;59.36;94503.06;4088208;28;20780;-61
2023/02/27 08:55:16;;;;;;;7.18;4.53;;;;;;;9.99;60.69;94500.44;4078014;28;20293;-62
2023/02/27 08:57:18;;;;;;;6.22;3.92;;;;;;;10.23;59.96;94499.66;4094061;28;20063;-59
2023/02/27 08:59:20;;;;;;;7.30;3.58;;;;;;;10.37;59.43;94506.13;4093920;28;20072;-61
2023/02/27 09:01:21;;;;;;;8.80;4.10;;;;;;;10.24;59.33;94513.59;4105568;28;20965;-60
2023/02/27 09:03:27;;;;;;;7.80;3.83;;;;;;;10.36;58.98;94514.94;4109139;28;20112;-61
2023/02/27 09:05:29;;;;;;;11.02;5.05;;;;;;;10.17;59.85;94510.78;4097078;28;20829;-62
2023/02/27 09:07:32;;;;;;;6.43;4.88;;;;;;;9.90;59.79;94524.97;4107667;28;20044;-62
2023/02/27 09:09:33;;;;;;;4.47;3.13;;;;;;;9.04;61.25;94532.91;4111182;28;20298;-63
2023/02/27 09:11:35;;;;;;;5.72;3.22;;;;;;;9.01;62.99;94531.41;4096005;28;20084;-59
2023/02/27 09:13:39;;;;;;;8.60;4.20;;;;;;;9.21;62.50;94532.03;4110016;28;20056;-61
2023/02/27 09:15:41;;;;;;;6.47;3.78;;;;;;;9.56;62.12;94533.66;4107194;28;20434;-61
2023/02/27 09:17:42;;;;;;;7.30;4.57;;;;;;;9.91;61.08;94531.00;4106465;28;20052;-61
2023/02/27 09:19:44;;;;;;;10.38;5.30;;;;;;;10.25;60.56;94538.78;4106703;28;20048;-60
2023/02/27 09:21:46;;;;;;;7.78;3.90;;;;;;;10.33;59.37;94535.41;4080633;28;20059;-62
2023/02/27 09:23:47;;;;;;;6.85;4.10;;;;;;;10.09;59.79;94542.19;4084785;28;20048;-60
2023/02/27 09:25:49;;;;;;;5.50;3.40;;;;;;;10.06;59.97;94539.88;4081351;28;20052;-62
2023/02/27 09:27:51;;;;;;;5.22;3.60;;;;;;;9.62;61.19;94548.72;4089384;28;20357;-63
2023/02/27 09:29:54;;;;;;;6.93;4.60;;;;;;;9.48;61.63;94541.47;4075613;28;20048;-62
2023/02/27 09:31:56;;;;;;;5.63;4.28;;;;;;;9.62;61.40;94553.16;4080991;28;20243;-62
2023/02/27 09:34:00;;;;;;;6.28;3.95;;;;;;;9.78;61.36;94539.31;4094117;28;20148;-60
2023/02/27 09:36:02;;;;;;;;;;;;;;;9.85;61.52;94540.31;4088414;28;20358;-61
2023/02/27 09:38:04;;;;;;;4.68;3.53;;;;;;;10.20;60.97;94541.88;4079752;28;20750;-63
2023/02/27 09:40:06;;;;;;;6.07;4.07;;;;;;;10.41;59.78;94546.72;4100607;28;20732;-61
2023/02/27 09:42:18;;;;;;;9.15;3.83;;;;;;;9.99;60.62;94544.13;4101731;28;20056;-60
2023/02/27 09:44:23;;;;;;;8.23;4.30;;;;;;;9.92;61.05;94540.53;4210392;28;20059;-60
2023/02/27 09:46:44;;;;;;;8.73;4.80;;;;;;;10.22;60.89;94537.31;4212223;28;20052;-60
2023/02/27 09:48:51;;;;;;;5.72;3.78;;;;;;;10.50;59.91;94541.50;4210839;28;20598;-60
2023/02/27 09:50:53;;;;;;;7.55;4.25;;;;;;;10.02;60.82;94554.25;4208759;28;20044;-59
2023/02/27 09:52:54;;;;;;;11.07;4.50;;;;;;;10.05;61.51;94553.97;4212030;28;20047;-60
2023/02/27 09:54:59;;;;;;;9.80;4.78;;;;;;;9.94;61.52;94556.88;4212005;28;20051;-62
2023/02/27 09:57:04;;;;;;;6.80;4.18;;;;;;;9.81;61.27;94565.16;4198305;28;20052;-60
2023/02/27 09:59:27;;;;;;;9.88;5.05;;;;;;;9.99;61.26;94558.03;4211704;28;20044;-58